Nearby METAR Reports

 

EDNY - Friedrichshafen, Germany
Distance from station: ONO 32km
aktuell: 24.04.2018 12:50
Few Clouds
Few Clouds
 Wind von WSW
Wind: WSW 13 km/h
Temperatur: 19°C
Taupunkt: 12°C
Luftfeuchte: 64%
Luftdruck: 1020 hPa
Clouds: Few Clouds
Visibility: 10 km
Cloud details: Few Clouds 975 m
2018/04/24 10:50 EDNY 241050Z 24007KT 9999 FEW032 19/12 Q1020
LSZR - Rheineck/Altenrh, Switzerland
Distance from station: OSO 37km
aktuell: 24.04.2018 13:50
Few Clouds
Few Clouds
 Wind von NNW
Wind: NNW 9 km/h
Temperatur: 18°C
Taupunkt: 11°C
Luftfeuchte: 64%
Luftdruck: 1019 hPa
Clouds: Few Clouds
Visibility: 10 km
Cloud details: Few Clouds 1524 m
2018/04/24 11:50 LSZR 241150Z 33005KT 280V050 9999 FEW050 18/11 Q1019 NOSIG RMK I
LSMD - Dubendorf, Switzerland
Distance from station: SW 40km
aktuell: 24.04.2018 13:50
Few Clouds
Few Clouds
 Wind von varies
Wind: varies 11 km/h
Temperatur: 20°C
Taupunkt: 8°C
Luftfeuchte: 46%
Luftdruck: 1019 hPa
Clouds: Few Clouds
Visibility: 10 km
Cloud details: Few Clouds 1554 m
2018/04/24 11:50 LSMD 241150Z VRB06KT 9999 FEW051 20/08 Q1019 RMK BLU+
 
LSZH - Zurich-Kloten (a, Switzerland
Distance from station: WSW 44km
aktuell: 24.04.2018 13:50
teilweise bewölkt
teilweise bewölkt
 Wind von WSW
Wind: WSW 19 km/h
Temperatur: 21°C
Taupunkt: 9°C
Luftfeuchte: 46%
Luftdruck: 1019 hPa
Clouds: teilweise bewölkt
Visibility: 10 km
Cloud details: Few Clouds 1280 m
teilweise bewölkt 7620 m
2018/04/24 11:50 LSZH 241150Z 24010KT 9999 FEW042 SCT250 21/09 Q1019 NOSIG
LOIH - Hohenems-Dornbir, Austria
Distance from station: OSO 51km
aktuell: 31.10.2016 17:00
NOT Current
geschlossene Wolkendecke
geschlossene Wolkendecke
 Wind von calm
Wind: Windstill
Temperatur: 10°C
Taupunkt: 9°C
Luftfeuchte: 94%
Luftdruck: 1026 hPa
Clouds: geschlossene Wolkendecke
Cloud details: geschlossene Wolkendecke 305 m
2016/10/31 16:00 LOIH 311600Z 00000KT 10KM OVC010ST 10/09 Q1026 RMK OVC
LSME - Emmen, Switzerland
Distance from station: SW 82km
aktuell: 24.04.2018 13:50
Few Clouds
Few Clouds
 Wind von varies
Wind: varies 2 km/h
Temperatur: 19°C
Taupunkt: 11°C
Luftfeuchte: 60%
Luftdruck: 1020 hPa
Clouds: Few Clouds
Visibility: 10 km
Cloud details: Few Clouds 975 m
2018/04/24 11:50 LSME 241150Z VRB01KT 9999 FEW032 19/11 Q1020 RMK BLU+
 
LSZC - Buochs, Switzerland
Distance from station: SW 89km
aktuell: 24.04.2018 13:50
Few Clouds
Few Clouds
 Wind von O
Wind: O 6 km/h
Temperatur: 19°C
Taupunkt: 12°C
Luftfeuchte: 64%
Luftdruck: 1019 hPa
Clouds: Few Clouds
Visibility: 10 km
Cloud details: Few Clouds 1219 m
2018/04/24 11:50 LSZC 241150Z 10003KT 050V160 9999 FEW040 19/12 Q1019
ETHL - Laupheim (ger-Ar, Germany
Distance from station: NO 92km
aktuell: 24.04.2018 13:20
stark bewölkt
stark bewölkt
 Wind von WSW
Wind: WSW 26 km/h
Temperatur: 18°C
Taupunkt: 8°C
Luftfeuchte: 52%
Luftdruck: 1019 hPa
Clouds: stark bewölkt
Visibility: 10 km
Cloud details: Few Clouds 1311 m
stark bewölkt 8534 m
2018/04/24 11:20 ETHL 241120Z 25014KT 9999 FEW043 BKN280 18/08 Q1019 BLU+BLU+
EDJA - Memmingen Allgau, Germany
Distance from station: ONO 95km
aktuell: 24.04.2018 13:50
teilweise bewölkt
teilweise bewölkt
 Wind von SW
Wind: SW 20 km/h
Temperatur: 18°C
Taupunkt: 10°C
Luftfeuchte: 60%
Luftdruck: 1019 hPa
Clouds: teilweise bewölkt
Visibility: 10 km
Cloud details: teilweise bewölkt 1250 m
2018/04/24 11:50 EDJA 241150Z 23011KT 190V260 9999 SCT041 18/10 Q1019
 
LSMA - Alpnach, Switzerland
Distance from station: SW 95km
aktuell: 24.04.2018 13:50
Few Clouds
Few Clouds
 Wind von ONO
Wind: ONO 19 km/h
Temperatur: 20°C
Taupunkt: 12°C
Luftfeuchte: 60%
Luftdruck: 1019 hPa
Clouds: Few Clouds
Visibility: 10 km
Cloud details: Few Clouds 1524 m
2018/04/24 11:50 LSMA 241150Z 06010KT 040V100 9999 FEW050 20/12 Q1019 RMK BLU+